sensor_id;sensor_type;location;lat;lon;timestamp;P1;durP1;ratioP1;P2;durP2;ratioP2
55931;SDS011;41837;55.700;37.984;2023-07-28T00:00:37;33.10;;;22.88;;
55931;SDS011;41837;55.700;37.984;2023-07-28T00:03:03;33.78;;;23.58;;
55931;SDS011;41837;55.700;37.984;2023-07-28T00:05:30;30.13;;;22.45;;
55931;SDS011;41837;55.700;37.984;2023-07-28T00:07:56;29.38;;;22.27;;
55931;SDS011;41837;55.700;37.984;2023-07-28T00:10:22;29.42;;;21.50;;
55931;SDS011;41837;55.700;37.984;2023-07-28T00:12:49;33.65;;;21.55;;
55931;SDS011;41837;55.700;37.984;2023-07-28T00:15:15;30.60;;;20.75;;
55931;SDS011;41837;55.700;37.984;2023-07-28T00:17:42;30.38;;;20.73;;
55931;SDS011;41837;55.700;37.984;2023-07-28T00:20:08;27.08;;;19.15;;
55931;SDS011;41837;55.700;37.984;2023-07-28T00:22:35;26.45;;;19.45;;
55931;SDS011;41837;55.700;37.984;2023-07-28T00:25:02;29.48;;;19.23;;
55931;SDS011;41837;55.700;37.984;2023-07-28T00:27:30;28.33;;;18.63;;
55931;SDS011;41837;55.700;37.984;2023-07-28T00:29:56;28.40;;;18.92;;
55931;SDS011;41837;55.700;37.984;2023-07-28T00:32:22;25.63;;;19.17;;
55931;SDS011;41837;55.700;37.984;2023-07-28T00:34:48;26.02;;;20.02;;
55931;SDS011;41837;55.700;37.984;2023-07-28T00:37:14;28.83;;;20.02;;
55931;SDS011;41837;55.700;37.984;2023-07-28T00:39:41;27.17;;;17.63;;
55931;SDS011;41837;55.700;37.984;2023-07-28T00:42:07;28.67;;;17.05;;
55931;SDS011;41837;55.700;37.984;2023-07-28T00:44:35;32.30;;;16.70;;
55931;SDS011;41837;55.700;37.984;2023-07-28T00:47:02;24.88;;;17.17;;
55931;SDS011;41837;55.700;37.984;2023-07-28T00:49:41;25.38;;;16.95;;
55931;SDS011;41837;55.700;37.984;2023-07-28T00:52:08;23.70;;;17.73;;
55931;SDS011;41837;55.700;37.984;2023-07-28T00:54:35;27.17;;;19.05;;
55931;SDS011;41837;55.700;37.984;2023-07-28T00:57:02;27.83;;;19.92;;
55931;SDS011;41837;55.700;37.984;2023-07-28T00:59:30;30.60;;;21.23;;
55931;SDS011;41837;55.700;37.984;2023-07-28T01:01:57;28.73;;;21.40;;
55931;SDS011;41837;55.700;37.984;2023-07-28T01:04:24;35.83;;;22.33;;
55931;SDS011;41837;55.700;37.984;2023-07-28T01:06:57;26.05;;;20.92;;
55931;SDS011;41837;55.700;37.984;2023-07-28T01:09:38;30.65;;;22.05;;
55931;SDS011;41837;55.700;37.984;2023-07-28T01:12:12;37.60;;;25.88;;
55931;SDS011;41837;55.700;37.984;2023-07-28T01:14:38;40.25;;;28.50;;
55931;SDS011;41837;55.700;37.984;2023-07-28T01:17:04;31.75;;;23.48;;
55931;SDS011;41837;55.700;37.984;2023-07-28T01:19:32;30.83;;;22.17;;
55931;SDS011;41837;55.700;37.984;2023-07-28T01:27:47;25.42;;;21.35;;
55931;SDS011;41837;55.700;37.984;2023-07-28T01:30:15;31.13;;;21.58;;
55931;SDS011;41837;55.700;37.984;2023-07-28T01:32:42;28.05;;;20.63;;
55931;SDS011;41837;55.700;37.984;2023-07-28T01:35:09;34.45;;;22.15;;
55931;SDS011;41837;55.700;37.984;2023-07-28T01:37:35;32.33;;;20.23;;
55931;SDS011;41837;55.700;37.984;2023-07-28T01:40:02;27.50;;;20.88;;
55931;SDS011;41837;55.700;37.984;2023-07-28T01:42:29;27.48;;;19.20;;
55931;SDS011;41837;55.700;37.984;2023-07-28T01:44:55;30.95;;;18.90;;
55931;SDS011;41837;55.700;37.984;2023-07-28T01:47:21;28.52;;;18.98;;
55931;SDS011;41837;55.700;37.984;2023-07-28T01:49:48;28.30;;;18.42;;
55931;SDS011;41837;55.700;37.984;2023-07-28T01:52:14;28.15;;;17.90;;
55931;SDS011;41837;55.700;37.984;2023-07-28T01:54:41;28.52;;;19.10;;
55931;SDS011;41837;55.700;37.984;2023-07-28T01:57:07;27.85;;;18.58;;
55931;SDS011;41837;55.700;37.984;2023-07-28T01:59:33;38.95;;;20.05;;
55931;SDS011;41837;55.700;37.984;2023-07-28T02:02:00;29.77;;;18.73;;
55931;SDS011;41837;55.700;37.984;2023-07-28T02:04:26;28.13;;;18.83;;
55931;SDS011;41837;55.700;37.984;2023-07-28T02:06:52;30.35;;;19.98;;
55931;SDS011;41837;55.700;37.984;2023-07-28T02:09:18;31.80;;;20.70;;
55931;SDS011;41837;55.700;37.984;2023-07-28T02:11:44;29.58;;;19.23;;
55931;SDS011;41837;55.700;37.984;2023-07-28T02:14:10;29.85;;;18.48;;
55931;SDS011;41837;55.700;37.984;2023-07-28T02:16:37;25.63;;;17.45;;
55931;SDS011;41837;55.700;37.984;2023-07-28T02:19:03;30.17;;;18.33;;
55931;SDS011;41837;55.700;37.984;2023-07-28T02:21:30;28.25;;;17.13;;
55931;SDS011;41837;55.700;37.984;2023-07-28T02:23:56;24.23;;;17.10;;
55931;SDS011;41837;55.700;37.984;2023-07-28T02:26:22;22.55;;;16.58;;
55931;SDS011;41837;55.700;37.984;2023-07-28T02:28:48;24.45;;;16.17;;
55931;SDS011;41837;55.700;37.984;2023-07-28T02:31:15;23.65;;;17.00;;
55931;SDS011;41837;55.700;37.984;2023-07-28T02:33:41;23.73;;;16.42;;
55931;SDS011;41837;55.700;37.984;2023-07-28T02:36:08;24.75;;;16.65;;
55931;SDS011;41837;55.700;37.984;2023-07-28T02:38:34;27.20;;;17.75;;
55931;SDS011;41837;55.700;37.984;2023-07-28T02:41:01;27.58;;;16.98;;
55931;SDS011;41837;55.700;37.984;2023-07-28T02:43:29;22.80;;;16.15;;
55931;SDS011;41837;55.700;37.984;2023-07-28T02:45:56;24.33;;;15.57;;
55931;SDS011;41837;55.700;37.984;2023-07-28T02:48:23;25.20;;;16.08;;
55931;SDS011;41837;55.700;37.984;2023-07-28T02:50:50;22.95;;;15.93;;
55931;SDS011;41837;55.700;37.984;2023-07-28T02:53:17;22.95;;;15.80;;
55931;SDS011;41837;55.700;37.984;2023-07-28T02:55:44;23.40;;;16.10;;
55931;SDS011;41837;55.700;37.984;2023-07-28T02:58:11;23.70;;;15.00;;
55931;SDS011;41837;55.700;37.984;2023-07-28T03:00:39;22.75;;;15.30;;
55931;SDS011;41837;55.700;37.984;2023-07-28T03:03:07;24.10;;;14.63;;
55931;SDS011;41837;55.700;37.984;2023-07-28T03:05:37;23.30;;;14.40;;
55931;SDS011;41837;55.700;37.984;2023-07-28T03:08:14;23.70;;;13.30;;
55931;SDS011;41837;55.700;37.984;2023-07-28T03:10:41;22.00;;;13.00;;
55931;SDS011;41837;55.700;37.984;2023-07-28T03:13:07;23.75;;;13.07;;
55931;SDS011;41837;55.700;37.984;2023-07-28T03:15:33;21.13;;;13.07;;
55931;SDS011;41837;55.700;37.984;2023-07-28T03:17:59;21.00;;;12.38;;
55931;SDS011;41837;55.700;37.984;2023-07-28T03:20:26;20.40;;;13.18;;
55931;SDS011;41837;55.700;37.984;2023-07-28T03:22:52;21.17;;;12.75;;
55931;SDS011;41837;55.700;37.984;2023-07-28T03:25:18;19.80;;;12.15;;
55931;SDS011;41837;55.700;37.984;2023-07-28T03:27:45;18.25;;;11.95;;
55931;SDS011;41837;55.700;37.984;2023-07-28T03:30:12;25.27;;;12.88;;
55931;SDS011;41837;55.700;37.984;2023-07-28T03:32:38;24.35;;;12.07;;
55931;SDS011;41837;55.700;37.984;2023-07-28T03:35:05;19.25;;;12.13;;
55931;SDS011;41837;55.700;37.984;2023-07-28T03:37:37;23.45;;;12.98;;
55931;SDS011;41837;55.700;37.984;2023-07-28T03:40:03;20.15;;;12.50;;
55931;SDS011;41837;55.700;37.984;2023-07-28T03:42:39;18.17;;;12.43;;
55931;SDS011;41837;55.700;37.984;2023-07-28T03:45:05;19.25;;;12.57;;
55931;SDS011;41837;55.700;37.984;2023-07-28T03:47:32;25.85;;;13.00;;
55931;SDS011;41837;55.700;37.984;2023-07-28T03:49:58;28.80;;;15.63;;
55931;SDS011;41837;55.700;37.984;2023-07-28T03:52:24;38.92;;;25.83;;
55931;SDS011;41837;55.700;37.984;2023-07-28T03:54:50;45.55;;;36.38;;
55931;SDS011;41837;55.700;37.984;2023-07-28T03:57:17;88.18;;;78.60;;
55931;SDS011;41837;55.700;37.984;2023-07-28T03:59:43;33.75;;;25.50;;
55931;SDS011;41837;55.700;37.984;2023-07-28T04:02:10;28.33;;;17.27;;
55931;SDS011;41837;55.700;37.984;2023-07-28T04:04:36;26.33;;;18.00;;
55931;SDS011;41837;55.700;37.984;2023-07-28T04:07:03;30.92;;;17.88;;
55931;SDS011;41837;55.700;37.984;2023-07-28T04:09:30;27.73;;;15.45;;
55931;SDS011;41837;55.700;37.984;2023-07-28T04:11:56;23.08;;;15.55;;
55931;SDS011;41837;55.700;37.984;2023-07-28T04:14:23;21.20;;;13.60;;
55931;SDS011;41837;55.700;37.984;2023-07-28T04:16:49;19.42;;;13.80;;
55931;SDS011;41837;55.700;37.984;2023-07-28T04:19:16;19.17;;;13.65;;
55931;SDS011;41837;55.700;37.984;2023-07-28T04:21:42;18.77;;;12.65;;
55931;SDS011;41837;55.700;37.984;2023-07-28T04:24:09;15.75;;;11.40;;
55931;SDS011;41837;55.700;37.984;2023-07-28T04:26:41;22.92;;;12.98;;
55931;SDS011;41837;55.700;37.984;2023-07-28T04:29:09;23.30;;;13.05;;
55931;SDS011;41837;55.700;37.984;2023-07-28T04:31:35;27.77;;;16.15;;
55931;SDS011;41837;55.700;37.984;2023-07-28T04:34:07;27.33;;;15.50;;
55931;SDS011;41837;55.700;37.984;2023-07-28T04:36:52;26.05;;;17.33;;
55931;SDS011;41837;55.700;37.984;2023-07-28T04:39:23;27.60;;;17.42;;
55931;SDS011;41837;55.700;37.984;2023-07-28T04:41:50;22.80;;;16.30;;
55931;SDS011;41837;55.700;37.984;2023-07-28T04:44:17;23.05;;;13.93;;
55931;SDS011;41837;55.700;37.984;2023-07-28T04:46:47;24.60;;;14.73;;
55931;SDS011;41837;55.700;37.984;2023-07-28T04:49:14;19.92;;;14.13;;
55931;SDS011;41837;55.700;37.984;2023-07-28T04:51:59;15.52;;;12.13;;
55931;SDS011;41837;55.700;37.984;2023-07-28T04:54:56;12.98;;;9.30;;
55931;SDS011;41837;55.700;37.984;2023-07-28T04:57:22;19.02;;;11.50;;
55931;SDS011;41837;55.700;37.984;2023-07-28T04:59:48;20.73;;;13.27;;
55931;SDS011;41837;55.700;37.984;2023-07-28T05:02:15;15.70;;;11.15;;
55931;SDS011;41837;55.700;37.984;2023-07-28T05:04:41;13.40;;;10.05;;
55931;SDS011;41837;55.700;37.984;2023-07-28T05:07:07;12.23;;;7.65;;
55931;SDS011;41837;55.700;37.984;2023-07-28T05:09:33;11.85;;;6.88;;
55931;SDS011;41837;55.700;37.984;2023-07-28T05:12:00;7.18;;;5.97;;
55931;SDS011;41837;55.700;37.984;2023-07-28T05:14:28;8.57;;;5.60;;
55931;SDS011;41837;55.700;37.984;2023-07-28T05:16:54;8.20;;;5.60;;
55931;SDS011;41837;55.700;37.984;2023-07-28T05:19:39;11.32;;;5.18;;
55931;SDS011;41837;55.700;37.984;2023-07-28T05:22:38;5.90;;;4.55;;
55931;SDS011;41837;55.700;37.984;2023-07-28T05:25:04;7.50;;;4.20;;
55931;SDS011;41837;55.700;37.984;2023-07-28T05:27:34;8.88;;;4.40;;
55931;SDS011;41837;55.700;37.984;2023-07-28T05:30:00;6.80;;;4.13;;
55931;SDS011;41837;55.700;37.984;2023-07-28T05:32:26;6.20;;;3.75;;
55931;SDS011;41837;55.700;37.984;2023-07-28T05:35:18;4.65;;;3.90;;
55931;SDS011;41837;55.700;37.984;2023-07-28T05:37:46;6.38;;;3.60;;
55931;SDS011;41837;55.700;37.984;2023-07-28T05:40:13;7.57;;;3.33;;
55931;SDS011;41837;55.700;37.984;2023-07-28T05:42:39;6.65;;;3.28;;
55931;SDS011;41837;55.700;37.984;2023-07-28T05:45:06;6.20;;;3.30;;
55931;SDS011;41837;55.700;37.984;2023-07-28T05:47:33;5.38;;;3.20;;
55931;SDS011;41837;55.700;37.984;2023-07-28T05:50:00;7.00;;;2.90;;
55931;SDS011;41837;55.700;37.984;2023-07-28T05:52:28;4.30;;;2.97;;
55931;SDS011;41837;55.700;37.984;2023-07-28T05:54:54;5.43;;;2.45;;
55931;SDS011;41837;55.700;37.984;2023-07-28T05:57:21;7.13;;;2.60;;
55931;SDS011;41837;55.700;37.984;2023-07-28T05:59:47;4.13;;;2.30;;
55931;SDS011;41837;55.700;37.984;2023-07-28T06:02:14;6.40;;;2.45;;
55931;SDS011;41837;55.700;37.984;2023-07-28T06:04:52;4.40;;;2.50;;
55931;SDS011;41837;55.700;37.984;2023-07-28T06:07:19;4.57;;;2.40;;
55931;SDS011;41837;55.700;37.984;2023-07-28T06:09:45;7.57;;;2.70;;
55931;SDS011;41837;55.700;37.984;2023-07-28T06:12:12;5.10;;;2.50;;
55931;SDS011;41837;55.700;37.984;2023-07-28T06:14:39;10.38;;;2.85;;
55931;SDS011;41837;55.700;37.984;2023-07-28T06:17:07;6.15;;;2.78;;
55931;SDS011;41837;55.700;37.984;2023-07-28T06:19:35;6.68;;;3.15;;
55931;SDS011;41837;55.700;37.984;2023-07-28T06:22:02;6.80;;;2.90;;
55931;SDS011;41837;55.700;37.984;2023-07-28T06:24:29;7.07;;;3.50;;
55931;SDS011;41837;55.700;37.984;2023-07-28T06:26:58;7.15;;;3.40;;
55931;SDS011;41837;55.700;37.984;2023-07-28T06:29:25;7.15;;;3.60;;
55931;SDS011;41837;55.700;37.984;2023-07-28T06:31:53;5.90;;;3.50;;
55931;SDS011;41837;55.700;37.984;2023-07-28T06:34:24;6.03;;;3.60;;
55931;SDS011;41837;55.700;37.984;2023-07-28T06:36:50;6.40;;;3.25;;
55931;SDS011;41837;55.700;37.984;2023-07-28T06:39:17;5.72;;;3.30;;
55931;SDS011;41837;55.700;37.984;2023-07-28T06:41:43;6.70;;;3.38;;
55931;SDS011;41837;55.700;37.984;2023-07-28T06:44:11;8.77;;;4.25;;
55931;SDS011;41837;55.700;37.984;2023-07-28T06:46:37;10.90;;;4.20;;
55931;SDS011;41837;55.700;37.984;2023-07-28T06:49:03;11.07;;;4.18;;
55931;SDS011;41837;55.700;37.984;2023-07-28T06:51:30;10.13;;;4.22;;
55931;SDS011;41837;55.700;37.984;2023-07-28T06:53:56;10.93;;;7.70;;
55931;SDS011;41837;55.700;37.984;2023-07-28T06:56:23;9.18;;;5.80;;
55931;SDS011;41837;55.700;37.984;2023-07-28T06:58:50;11.30;;;4.03;;
55931;SDS011;41837;55.700;37.984;2023-07-28T07:01:17;7.18;;;4.00;;
55931;SDS011;41837;55.700;37.984;2023-07-28T07:03:45;7.63;;;3.45;;
55931;SDS011;41837;55.700;37.984;2023-07-28T07:06:12;5.75;;;3.42;;
55931;SDS011;41837;55.700;37.984;2023-07-28T07:08:38;6.10;;;3.30;;
55931;SDS011;41837;55.700;37.984;2023-07-28T07:11:04;6.68;;;4.10;;
55931;SDS011;41837;55.700;37.984;2023-07-28T07:13:32;8.30;;;3.17;;
55931;SDS011;41837;55.700;37.984;2023-07-28T07:15:59;5.95;;;3.55;;
55931;SDS011;41837;55.700;37.984;2023-07-28T07:18:26;5.53;;;3.20;;
55931;SDS011;41837;55.700;37.984;2023-07-28T07:20:52;8.15;;;3.90;;
55931;SDS011;41837;55.700;37.984;2023-07-28T07:23:19;6.47;;;3.80;;
55931;SDS011;41837;55.700;37.984;2023-07-28T07:25:45;6.53;;;3.25;;
55931;SDS011;41837;55.700;37.984;2023-07-28T07:28:11;6.75;;;3.47;;
55931;SDS011;41837;55.700;37.984;2023-07-28T07:30:37;8.25;;;3.88;;
55931;SDS011;41837;55.700;37.984;2023-07-28T07:33:04;6.10;;;3.45;;
55931;SDS011;41837;55.700;37.984;2023-07-28T07:35:30;12.90;;;3.60;;
55931;SDS011;41837;55.700;37.984;2023-07-28T07:37:56;9.35;;;3.65;;
55931;SDS011;41837;55.700;37.984;2023-07-28T07:40:23;8.52;;;3.60;;
55931;SDS011;41837;55.700;37.984;2023-07-28T07:42:49;9.73;;;3.97;;
55931;SDS011;41837;55.700;37.984;2023-07-28T07:45:15;7.72;;;3.70;;
55931;SDS011;41837;55.700;37.984;2023-07-28T07:47:42;12.40;;;4.22;;
55931;SDS011;41837;55.700;37.984;2023-07-28T07:50:08;11.38;;;3.63;;
55931;SDS011;41837;55.700;37.984;2023-07-28T07:52:37;8.95;;;4.20;;
55931;SDS011;41837;55.700;37.984;2023-07-28T07:55:04;9.90;;;3.80;;
55931;SDS011;41837;55.700;37.984;2023-07-28T07:57:32;11.40;;;4.47;;
55931;SDS011;41837;55.700;37.984;2023-07-28T07:59:59;9.82;;;3.67;;
55931;SDS011;41837;55.700;37.984;2023-07-28T08:02:25;10.48;;;4.28;;
55931;SDS011;41837;55.700;37.984;2023-07-28T08:04:52;9.27;;;4.07;;
55931;SDS011;41837;55.700;37.984;2023-07-28T08:07:22;12.27;;;4.53;;
55931;SDS011;41837;55.700;37.984;2023-07-28T08:09:49;8.45;;;4.18;;
55931;SDS011;41837;55.700;37.984;2023-07-28T08:12:16;8.23;;;4.40;;
55931;SDS011;41837;55.700;37.984;2023-07-28T08:14:43;7.38;;;3.20;;
55931;SDS011;41837;55.700;37.984;2023-07-28T08:17:12;9.77;;;3.53;;
55931;SDS011;41837;55.700;37.984;2023-07-28T08:19:38;5.85;;;3.20;;
55931;SDS011;41837;55.700;37.984;2023-07-28T08:22:05;6.78;;;4.10;;
55931;SDS011;41837;55.700;37.984;2023-07-28T08:24:31;9.05;;;4.40;;
55931;SDS011;41837;55.700;37.984;2023-07-28T08:26:57;9.90;;;5.65;;
55931;SDS011;41837;55.700;37.984;2023-07-28T08:29:24;8.80;;;4.25;;
55931;SDS011;41837;55.700;37.984;2023-07-28T08:31:51;8.90;;;4.03;;
55931;SDS011;41837;55.700;37.984;2023-07-28T08:34:17;8.38;;;3.67;;
55931;SDS011;41837;55.700;37.984;2023-07-28T08:36:43;8.00;;;4.32;;
55931;SDS011;41837;55.700;37.984;2023-07-28T08:39:10;16.08;;;4.57;;
55931;SDS011;41837;55.700;37.984;2023-07-28T08:41:38;11.93;;;4.10;;
55931;SDS011;41837;55.700;37.984;2023-07-28T08:44:04;7.55;;;3.85;;
55931;SDS011;41837;55.700;37.984;2023-07-28T08:46:30;10.40;;;3.70;;
55931;SDS011;41837;55.700;37.984;2023-07-28T08:48:59;10.15;;;3.83;;
55931;SDS011;41837;55.700;37.984;2023-07-28T08:51:27;9.23;;;3.80;;
55931;SDS011;41837;55.700;37.984;2023-07-28T08:53:53;12.18;;;4.35;;
55931;SDS011;41837;55.700;37.984;2023-07-28T08:56:20;7.75;;;3.35;;
55931;SDS011;41837;55.700;37.984;2023-07-28T08:58:47;7.13;;;3.47;;
55931;SDS011;41837;55.700;37.984;2023-07-28T09:01:13;8.70;;;3.67;;
55931;SDS011;41837;55.700;37.984;2023-07-28T09:03:39;7.63;;;3.13;;
55931;SDS011;41837;55.700;37.984;2023-07-28T09:06:07;10.10;;;3.58;;
55931;SDS011;41837;55.700;37.984;2023-07-28T09:08:34;7.32;;;3.42;;
55931;SDS011;41837;55.700;37.984;2023-07-28T09:11:03;11.35;;;3.33;;
55931;SDS011;41837;55.700;37.984;2023-07-28T09:13:41;5.57;;;2.70;;
55931;SDS011;41837;55.700;37.984;2023-07-28T09:16:17;9.57;;;3.25;;
55931;SDS011;41837;55.700;37.984;2023-07-28T09:18:45;12.02;;;3.22;;
55931;SDS011;41837;55.700;37.984;2023-07-28T09:21:18;9.13;;;3.70;;
55931;SDS011;41837;55.700;37.984;2023-07-28T09:23:47;6.78;;;3.58;;
55931;SDS011;41837;55.700;37.984;2023-07-28T09:26:15;6.60;;;2.97;;
55931;SDS011;41837;55.700;37.984;2023-07-28T09:28:41;9.35;;;3.75;;
55931;SDS011;41837;55.700;37.984;2023-07-28T09:31:08;6.78;;;3.03;;
55931;SDS011;41837;55.700;37.984;2023-07-28T09:33:37;7.55;;;3.58;;
55931;SDS011;41837;55.700;37.984;2023-07-28T09:36:09;8.73;;;3.58;;
55931;SDS011;41837;55.700;37.984;2023-07-28T09:38:38;5.00;;;3.03;;
55931;SDS011;41837;55.700;37.984;2023-07-28T09:41:07;10.05;;;3.97;;
55931;SDS011;41837;55.700;37.984;2023-07-28T09:43:39;11.55;;;4.80;;
55931;SDS011;41837;55.700;37.984;2023-07-28T09:46:07;15.27;;;5.60;;
55931;SDS011;41837;55.700;37.984;2023-07-28T09:48:36;10.68;;;4.90;;
55931;SDS011;41837;55.700;37.984;2023-07-28T09:51:17;11.20;;;4.93;;
55931;SDS011;41837;55.700;37.984;2023-07-28T09:53:46;15.00;;;4.88;;
55931;SDS011;41837;55.700;37.984;2023-07-28T09:56:15;10.35;;;5.43;;
55931;SDS011;41837;55.700;37.984;2023-07-28T09:58:51;15.75;;;5.65;;
55931;SDS011;41837;55.700;37.984;2023-07-28T10:01:19;11.27;;;5.50;;
55931;SDS011;41837;55.700;37.984;2023-07-28T10:03:47;11.93;;;5.70;;
55931;SDS011;41837;55.700;37.984;2023-07-28T10:06:15;15.98;;;7.53;;
55931;SDS011;41837;55.700;37.984;2023-07-28T10:08:43;18.10;;;10.13;;
55931;SDS011;41837;55.700;37.984;2023-07-28T10:11:17;20.05;;;11.45;;
55931;SDS011;41837;55.700;37.984;2023-07-28T10:13:44;27.15;;;15.45;;
55931;SDS011;41837;55.700;37.984;2023-07-28T10:16:12;42.63;;;33.55;;
55931;SDS011;41837;55.700;37.984;2023-07-28T10:18:42;30.77;;;17.98;;
55931;SDS011;41837;55.700;37.984;2023-07-28T10:21:19;20.88;;;8.63;;
55931;SDS011;41837;55.700;37.984;2023-07-28T10:23:48;17.50;;;7.30;;
55931;SDS011;41837;55.700;37.984;2023-07-28T10:26:39;11.68;;;7.55;;
55931;SDS011;41837;55.700;37.984;2023-07-28T10:29:07;17.10;;;8.82;;
55931;SDS011;41837;55.700;37.984;2023-07-28T10:31:53;20.88;;;8.63;;
55931;SDS011;41837;55.700;37.984;2023-07-28T10:34:22;21.85;;;8.63;;
55931;SDS011;41837;55.700;37.984;2023-07-28T10:36:58;17.00;;;7.85;;
55931;SDS011;41837;55.700;37.984;2023-07-28T10:39:25;15.43;;;7.40;;
55931;SDS011;41837;55.700;37.984;2023-07-28T10:44:32;14.70;;;7.22;;
55931;SDS011;41837;55.700;37.984;2023-07-28T10:46:59;15.00;;;6.95;;
55931;SDS011;41837;55.700;37.984;2023-07-28T10:49:29;11.32;;;7.07;;
55931;SDS011;41837;55.700;37.984;2023-07-28T10:51:56;17.35;;;7.45;;
55931;SDS011;41837;55.700;37.984;2023-07-28T10:54:22;12.57;;;6.85;;
55931;SDS011;41837;55.700;37.984;2023-07-28T10:56:48;12.10;;;5.93;;
55931;SDS011;41837;55.700;37.984;2023-07-28T10:59:15;13.13;;;6.82;;
55931;SDS011;41837;55.700;37.984;2023-07-28T11:01:41;12.68;;;6.10;;
55931;SDS011;41837;55.700;37.984;2023-07-28T11:04:10;11.65;;;6.75;;
55931;SDS011;41837;55.700;37.984;2023-07-28T11:06:40;16.58;;;7.35;;
55931;SDS011;41837;55.700;37.984;2023-07-28T11:09:15;16.88;;;7.22;;
55931;SDS011;41837;55.700;37.984;2023-07-28T11:11:42;12.52;;;5.53;;
55931;SDS011;41837;55.700;37.984;2023-07-28T11:14:09;11.27;;;5.07;;
55931;SDS011;41837;55.700;37.984;2023-07-28T11:16:38;10.60;;;5.07;;
55931;SDS011;41837;55.700;37.984;2023-07-28T11:19:08;10.43;;;4.60;;
55931;SDS011;41837;55.700;37.984;2023-07-28T11:21:51;8.85;;;4.65;;
55931;SDS011;41837;55.700;37.984;2023-07-28T11:24:20;8.40;;;4.20;;
55931;SDS011;41837;55.700;37.984;2023-07-28T11:26:47;9.93;;;4.47;;
55931;SDS011;41837;55.700;37.984;2023-07-28T11:29:16;7.75;;;4.85;;
55931;SDS011;41837;55.700;37.984;2023-07-28T11:31:43;8.77;;;4.93;;
55931;SDS011;41837;55.700;37.984;2023-07-28T11:34:16;10.30;;;5.00;;
55931;SDS011;41837;55.700;37.984;2023-07-28T11:36:44;8.65;;;4.85;;
55931;SDS011;41837;55.700;37.984;2023-07-28T11:39:11;10.55;;;5.72;;
55931;SDS011;41837;55.700;37.984;2023-07-28T11:41:37;13.60;;;5.55;;
55931;SDS011;41837;55.700;37.984;2023-07-28T11:44:06;9.90;;;5.45;;
55931;SDS011;41837;55.700;37.984;2023-07-28T11:46:33;11.40;;;6.47;;
55931;SDS011;41837;55.700;37.984;2023-07-28T11:51:46;10.05;;;5.05;;
55931;SDS011;41837;55.700;37.984;2023-07-28T11:54:15;9.38;;;5.55;;
55931;SDS011;41837;55.700;37.984;2023-07-28T11:56:43;8.30;;;5.15;;
55931;SDS011;41837;55.700;37.984;2023-07-28T11:59:10;6.57;;;4.68;;
55931;SDS011;41837;55.700;37.984;2023-07-28T12:04:24;8.80;;;5.03;;
55931;SDS011;41837;55.700;37.984;2023-07-28T12:12:42;8.55;;;5.15;;
55931;SDS011;41837;55.700;37.984;2023-07-28T12:15:21;11.18;;;5.10;;
55931;SDS011;41837;55.700;37.984;2023-07-28T12:18:05;8.55;;;4.93;;
55931;SDS011;41837;55.700;37.984;2023-07-28T12:20:40;12.68;;;5.80;;
55931;SDS011;41837;55.700;37.984;2023-07-28T12:23:13;11.10;;;5.73;;
55931;SDS011;41837;55.700;37.984;2023-07-28T12:25:41;11.10;;;5.80;;
55931;SDS011;41837;55.700;37.984;2023-07-28T12:28:08;10.73;;;5.95;;
55931;SDS011;41837;55.700;37.984;2023-07-28T12:30:35;16.83;;;6.70;;
55931;SDS011;41837;55.700;37.984;2023-07-28T12:33:01;14.63;;;7.00;;
55931;SDS011;41837;55.700;37.984;2023-07-28T12:35:28;11.60;;;7.97;;
55931;SDS011;41837;55.700;37.984;2023-07-28T12:38:01;14.98;;;8.63;;
55931;SDS011;41837;55.700;37.984;2023-07-28T12:40:32;13.57;;;8.45;;
55931;SDS011;41837;55.700;37.984;2023-07-28T12:43:02;15.45;;;8.88;;
55931;SDS011;41837;55.700;37.984;2023-07-28T12:45:30;19.42;;;10.68;;
55931;SDS011;41837;55.700;37.984;2023-07-28T12:47:56;20.67;;;12.50;;
55931;SDS011;41837;55.700;37.984;2023-07-28T12:50:23;17.65;;;13.20;;
55931;SDS011;41837;55.700;37.984;2023-07-28T12:52:50;22.40;;;15.23;;
55931;SDS011;41837;55.700;37.984;2023-07-28T12:55:17;26.70;;;16.75;;
55931;SDS011;41837;55.700;37.984;2023-07-28T12:57:45;25.15;;;15.38;;
55931;SDS011;41837;55.700;37.984;2023-07-28T13:00:15;23.55;;;15.90;;
55931;SDS011;41837;55.700;37.984;2023-07-28T13:02:43;24.58;;;18.10;;
55931;SDS011;41837;55.700;37.984;2023-07-28T13:05:11;22.70;;;16.90;;
55931;SDS011;41837;55.700;37.984;2023-07-28T13:07:40;26.90;;;16.92;;
55931;SDS011;41837;55.700;37.984;2023-07-28T13:10:07;24.27;;;17.33;;
55931;SDS011;41837;55.700;37.984;2023-07-28T13:12:40;26.52;;;19.00;;
55931;SDS011;41837;55.700;37.984;2023-07-28T13:15:06;22.50;;;16.35;;
55931;SDS011;41837;55.700;37.984;2023-07-28T13:17:34;23.85;;;15.00;;
55931;SDS011;41837;55.700;37.984;2023-07-28T13:20:00;24.90;;;15.05;;
55931;SDS011;41837;55.700;37.984;2023-07-28T13:22:28;21.48;;;15.80;;
55931;SDS011;41837;55.700;37.984;2023-07-28T13:24:55;23.75;;;16.83;;
55931;SDS011;41837;55.700;37.984;2023-07-28T13:27:21;25.40;;;15.85;;
55931;SDS011;41837;55.700;37.984;2023-07-28T13:29:47;21.40;;;15.35;;
55931;SDS011;41837;55.700;37.984;2023-07-28T13:32:24;27.40;;;15.90;;
55931;SDS011;41837;55.700;37.984;2023-07-28T13:34:52;24.35;;;16.42;;
55931;SDS011;41837;55.700;37.984;2023-07-28T13:37:19;25.30;;;16.20;;
55931;SDS011;41837;55.700;37.984;2023-07-28T13:39:45;21.05;;;14.32;;
55931;SDS011;41837;55.700;37.984;2023-07-28T13:42:11;19.65;;;13.10;;
55931;SDS011;41837;55.700;37.984;2023-07-28T13:44:39;18.50;;;12.60;;
55931;SDS011;41837;55.700;37.984;2023-07-28T13:47:05;18.38;;;12.95;;
55931;SDS011;41837;55.700;37.984;2023-07-28T13:49:32;21.17;;;12.63;;
55931;SDS011;41837;55.700;37.984;2023-07-28T13:52:01;17.38;;;12.90;;
55931;SDS011;41837;55.700;37.984;2023-07-28T13:54:29;21.70;;;13.40;;
55931;SDS011;41837;55.700;37.984;2023-07-28T13:56:55;31.70;;;15.80;;
55931;SDS011;41837;55.700;37.984;2023-07-28T13:59:22;18.50;;;14.50;;
55931;SDS011;41837;55.700;37.984;2023-07-28T14:01:48;18.38;;;12.68;;
55931;SDS011;41837;55.700;37.984;2023-07-28T14:04:16;21.67;;;12.63;;
55931;SDS011;41837;55.700;37.984;2023-07-28T14:06:43;21.15;;;13.52;;
55931;SDS011;41837;55.700;37.984;2023-07-28T14:09:10;17.55;;;11.00;;
55931;SDS011;41837;55.700;37.984;2023-07-28T14:11:36;13.80;;;10.10;;
55931;SDS011;41837;55.700;37.984;2023-07-28T14:14:03;13.85;;;8.32;;
55931;SDS011;41837;55.700;37.984;2023-07-28T14:16:29;13.82;;;8.02;;
55931;SDS011;41837;55.700;37.984;2023-07-28T14:18:56;13.18;;;7.50;;
55931;SDS011;41837;55.700;37.984;2023-07-28T14:21:22;12.02;;;7.70;;
55931;SDS011;41837;55.700;37.984;2023-07-28T14:23:48;13.55;;;7.78;;
55931;SDS011;41837;55.700;37.984;2023-07-28T14:26:15;11.98;;;7.88;;
55931;SDS011;41837;55.700;37.984;2023-07-28T14:28:42;10.07;;;8.10;;
55931;SDS011;41837;55.700;37.984;2023-07-28T14:31:09;14.02;;;8.50;;
55931;SDS011;41837;55.700;37.984;2023-07-28T14:33:35;13.70;;;8.05;;
55931;SDS011;41837;55.700;37.984;2023-07-28T14:36:02;16.85;;;8.50;;
55931;SDS011;41837;55.700;37.984;2023-07-28T14:38:29;14.93;;;9.15;;
55931;SDS011;41837;55.700;37.984;2023-07-28T14:40:56;13.27;;;8.77;;
55931;SDS011;41837;55.700;37.984;2023-07-28T14:43:22;13.75;;;8.38;;